Terminal Aerodrome Forecast
Issued by NWS Jackson, MS

Home | Current Version | Previous Version | Text Only | Print | Product List | Glossary On
Versions: 1 2 3 4 5 6 7 8 9 10 11 12 13 14 15 16 17
000
FTUS44 KJAN 211720
TAFMEI
TAF
KMEI 211720Z 2118/2218 05005KT P6SM SCT050
     FM212000 06004KT P6SM VCTS SCT040CB
     FM220000 07003KT P6SM SKC
     FM220900 00000KT 5SM BR FEW005
     FM221400 VRB03KT P6SM SKC=

USA.gov is the U.S. government's official web portal to all federal, state and local government web resources and services.